Cookstown, United Kingdom
Current Conditions -  °F | °C
As of 8:20 PM on Monday 22 Dec 2014 (Local Time) from EGAA Reporting Station
Broken Clouds Broken Clouds  
Wind Chill: 45°   Ceiling: 4100
Heat Index: 48°   Visibility: 6mi
Dew Point: 48°   Wind: 8mph
Humidity: 100%   Direction: 230°SW
Pressure: 29.74"   Gusts: NA
Location:  54.64°N, 6.75°W
Report Text: EGAA 222020Z 23007KT 9999 FEW033 BKN041 BKN048 09/09 Q1007
Loading
Personal Weather Stations






























Interactive Weather Map New forecast layout! Learn more

10-Day Weather Forecast

Advertisements
Track Severe Weather on mobile